sensor_id;sensor_type;location;lat;lon;timestamp;temperature;humidity
39881;DHT22;25554;44.954;10.068;2023-08-17T00:01:36;25.00;99.90
39881;DHT22;25554;44.954;10.068;2023-08-17T00:04:02;24.90;99.90
39881;DHT22;25554;44.954;10.068;2023-08-17T00:06:28;24.90;99.90
39881;DHT22;25554;44.954;10.068;2023-08-17T00:08:55;24.80;99.90
39881;DHT22;25554;44.954;10.068;2023-08-17T00:11:21;24.60;99.90
39881;DHT22;25554;44.954;10.068;2023-08-17T00:13:47;24.50;99.90
39881;DHT22;25554;44.954;10.068;2023-08-17T00:16:13;24.50;99.90
39881;DHT22;25554;44.954;10.068;2023-08-17T00:18:40;24.50;99.90
39881;DHT22;25554;44.954;10.068;2023-08-17T00:21:06;24.60;99.90
39881;DHT22;25554;44.954;10.068;2023-08-17T00:23:32;24.50;99.90
39881;DHT22;25554;44.954;10.068;2023-08-17T00:25:59;24.40;99.90
39881;DHT22;25554;44.954;10.068;2023-08-17T00:28:25;24.40;99.90
39881;DHT22;25554;44.954;10.068;2023-08-17T00:30:51;24.30;99.90
39881;DHT22;25554;44.954;10.068;2023-08-17T00:33:17;24.30;99.90
39881;DHT22;25554;44.954;10.068;2023-08-17T00:35:44;24.30;99.90
39881;DHT22;25554;44.954;10.068;2023-08-17T00:38:12;24.30;99.90
39881;DHT22;25554;44.954;10.068;2023-08-17T00:40:38;24.30;99.90
39881;DHT22;25554;44.954;10.068;2023-08-17T00:43:05;24.30;99.90
39881;DHT22;25554;44.954;10.068;2023-08-17T00:45:32;24.40;99.90
39881;DHT22;25554;44.954;10.068;2023-08-17T00:47:58;24.40;99.90
39881;DHT22;25554;44.954;10.068;2023-08-17T00:50:26;24.40;99.90
39881;DHT22;25554;44.954;10.068;2023-08-17T00:52:54;24.40;99.90
39881;DHT22;25554;44.954;10.068;2023-08-17T00:55:22;24.40;99.90
39881;DHT22;25554;44.954;10.068;2023-08-17T00:57:48;24.30;99.90
39881;DHT22;25554;44.954;10.068;2023-08-17T01:00:14;24.40;99.90
39881;DHT22;25554;44.954;10.068;2023-08-17T01:02:41;24.30;99.90
39881;DHT22;25554;44.954;10.068;2023-08-17T01:05:08;24.20;99.90
39881;DHT22;25554;44.954;10.068;2023-08-17T01:07:35;24.20;99.90
39881;DHT22;25554;44.954;10.068;2023-08-17T01:10:02;24.30;99.90
39881;DHT22;25554;44.954;10.068;2023-08-17T01:15:42;24.10;99.90
39881;DHT22;25554;44.954;10.068;2023-08-17T01:18:10;24.00;99.90
39881;DHT22;25554;44.954;10.068;2023-08-17T01:20:38;24.00;99.90
39881;DHT22;25554;44.954;10.068;2023-08-17T01:23:07;23.90;99.90
39881;DHT22;25554;44.954;10.068;2023-08-17T01:25:33;23.90;99.90
39881;DHT22;25554;44.954;10.068;2023-08-17T01:28:03;23.80;99.90
39881;DHT22;25554;44.954;10.068;2023-08-17T01:31:18;23.80;99.90
39881;DHT22;25554;44.954;10.068;2023-08-17T01:33:37;23.70;99.90
39881;DHT22;25554;44.954;10.068;2023-08-17T01:36:13;23.70;99.90
39881;DHT22;25554;44.954;10.068;2023-08-17T01:38:44;23.60;99.90
39881;DHT22;25554;44.954;10.068;2023-08-17T01:41:13;23.60;99.90
39881;DHT22;25554;44.954;10.068;2023-08-17T01:43:43;23.60;99.90
39881;DHT22;25554;44.954;10.068;2023-08-17T01:46:15;23.60;99.90
39881;DHT22;25554;44.954;10.068;2023-08-17T01:48:43;23.50;99.90
39881;DHT22;25554;44.954;10.068;2023-08-17T01:51:11;23.60;99.90
39881;DHT22;25554;44.954;10.068;2023-08-17T01:53:38;23.60;99.90
39881;DHT22;25554;44.954;10.068;2023-08-17T01:56:04;23.60;99.90
39881;DHT22;25554;44.954;10.068;2023-08-17T01:58:30;23.70;99.90
39881;DHT22;25554;44.954;10.068;2023-08-17T02:00:56;23.70;99.90
39881;DHT22;25554;44.954;10.068;2023-08-17T02:03:22;23.60;99.90
39881;DHT22;25554;44.954;10.068;2023-08-17T02:05:49;23.60;99.90
39881;DHT22;25554;44.954;10.068;2023-08-17T02:08:15;23.50;99.90
39881;DHT22;25554;44.954;10.068;2023-08-17T02:10:41;23.50;99.90
39881;DHT22;25554;44.954;10.068;2023-08-17T02:13:07;23.40;99.90
39881;DHT22;25554;44.954;10.068;2023-08-17T02:15:41;23.40;99.90
39881;DHT22;25554;44.954;10.068;2023-08-17T02:18:07;23.40;99.90
39881;DHT22;25554;44.954;10.068;2023-08-17T02:20:34;23.40;99.90
39881;DHT22;25554;44.954;10.068;2023-08-17T02:23:01;23.20;99.90
39881;DHT22;25554;44.954;10.068;2023-08-17T02:25:27;23.30;99.90
39881;DHT22;25554;44.954;10.068;2023-08-17T02:28:00;23.30;99.90
39881;DHT22;25554;44.954;10.068;2023-08-17T02:30:27;23.30;99.90
39881;DHT22;25554;44.954;10.068;2023-08-17T02:32:53;23.30;99.90
39881;DHT22;25554;44.954;10.068;2023-08-17T02:35:19;23.40;99.90
39881;DHT22;25554;44.954;10.068;2023-08-17T02:37:45;23.40;99.90
39881;DHT22;25554;44.954;10.068;2023-08-17T02:40:12;23.40;99.90
39881;DHT22;25554;44.954;10.068;2023-08-17T02:42:38;23.40;99.90
39881;DHT22;25554;44.954;10.068;2023-08-17T02:45:09;23.40;99.90
39881;DHT22;25554;44.954;10.068;2023-08-17T02:47:35;23.40;99.90
39881;DHT22;25554;44.954;10.068;2023-08-17T02:50:02;23.40;99.90
39881;DHT22;25554;44.954;10.068;2023-08-17T02:52:28;23.40;99.90
39881;DHT22;25554;44.954;10.068;2023-08-17T02:54:54;23.40;99.90
39881;DHT22;25554;44.954;10.068;2023-08-17T02:57:21;23.30;99.90
39881;DHT22;25554;44.954;10.068;2023-08-17T02:59:47;23.40;99.90
39881;DHT22;25554;44.954;10.068;2023-08-17T03:02:13;23.40;99.90
39881;DHT22;25554;44.954;10.068;2023-08-17T03:04:39;23.40;99.90
39881;DHT22;25554;44.954;10.068;2023-08-17T03:07:07;23.40;99.90
39881;DHT22;25554;44.954;10.068;2023-08-17T03:09:33;23.40;99.90
39881;DHT22;25554;44.954;10.068;2023-08-17T03:12:00;23.40;99.90
39881;DHT22;25554;44.954;10.068;2023-08-17T03:14:26;23.50;99.90
39881;DHT22;25554;44.954;10.068;2023-08-17T03:16:52;23.50;99.90
39881;DHT22;25554;44.954;10.068;2023-08-17T03:19:20;23.50;99.90
39881;DHT22;25554;44.954;10.068;2023-08-17T03:21:46;23.50;99.90
39881;DHT22;25554;44.954;10.068;2023-08-17T03:24:13;23.50;99.90
39881;DHT22;25554;44.954;10.068;2023-08-17T03:26:39;23.50;99.90
39881;DHT22;25554;44.954;10.068;2023-08-17T03:29:07;23.50;99.90
39881;DHT22;25554;44.954;10.068;2023-08-17T03:31:36;23.50;99.90
39881;DHT22;25554;44.954;10.068;2023-08-17T03:34:03;23.50;99.90
39881;DHT22;25554;44.954;10.068;2023-08-17T03:36:29;23.50;99.90
39881;DHT22;25554;44.954;10.068;2023-08-17T03:38:55;23.50;99.90
39881;DHT22;25554;44.954;10.068;2023-08-17T03:41:22;23.50;99.90
39881;DHT22;25554;44.954;10.068;2023-08-17T03:43:51;23.50;99.90
39881;DHT22;25554;44.954;10.068;2023-08-17T03:46:17;23.50;99.90
39881;DHT22;25554;44.954;10.068;2023-08-17T03:48:43;23.60;99.90
39881;DHT22;25554;44.954;10.068;2023-08-17T03:51:09;23.60;99.90
39881;DHT22;25554;44.954;10.068;2023-08-17T03:53:36;23.60;99.90
39881;DHT22;25554;44.954;10.068;2023-08-17T03:56:02;23.70;99.90
39881;DHT22;25554;44.954;10.068;2023-08-17T03:58:28;23.70;99.90
39881;DHT22;25554;44.954;10.068;2023-08-17T04:00:59;23.80;99.90
39881;DHT22;25554;44.954;10.068;2023-08-17T04:03:28;23.80;99.90
39881;DHT22;25554;44.954;10.068;2023-08-17T04:05:55;23.80;99.90
39881;DHT22;25554;44.954;10.068;2023-08-17T04:08:21;23.80;99.90
39881;DHT22;25554;44.954;10.068;2023-08-17T04:10:47;23.80;99.90
39881;DHT22;25554;44.954;10.068;2023-08-17T04:13:13;23.70;99.90
39881;DHT22;25554;44.954;10.068;2023-08-17T04:15:40;23.60;99.90
39881;DHT22;25554;44.954;10.068;2023-08-17T04:18:06;23.60;99.90
39881;DHT22;25554;44.954;10.068;2023-08-17T04:20:32;23.60;99.90
39881;DHT22;25554;44.954;10.068;2023-08-17T04:22:58;23.60;99.90
39881;DHT22;25554;44.954;10.068;2023-08-17T04:25:26;23.60;99.90
39881;DHT22;25554;44.954;10.068;2023-08-17T04:27:52;23.60;99.90
39881;DHT22;25554;44.954;10.068;2023-08-17T04:30:19;23.60;99.90
39881;DHT22;25554;44.954;10.068;2023-08-17T04:32:54;23.50;99.90
39881;DHT22;25554;44.954;10.068;2023-08-17T04:35:21;23.50;99.90
39881;DHT22;25554;44.954;10.068;2023-08-17T04:37:47;23.50;99.90
39881;DHT22;25554;44.954;10.068;2023-08-17T04:40:14;23.50;99.90
39881;DHT22;25554;44.954;10.068;2023-08-17T04:42:42;23.50;99.90
39881;DHT22;25554;44.954;10.068;2023-08-17T04:45:08;23.50;99.90
39881;DHT22;25554;44.954;10.068;2023-08-17T04:47:39;23.60;99.90
39881;DHT22;25554;44.954;10.068;2023-08-17T04:50:06;23.50;99.90
39881;DHT22;25554;44.954;10.068;2023-08-17T04:52:34;23.60;99.90
39881;DHT22;25554;44.954;10.068;2023-08-17T04:55:02;23.60;99.90
39881;DHT22;25554;44.954;10.068;2023-08-17T04:57:30;23.70;99.90
39881;DHT22;25554;44.954;10.068;2023-08-17T04:59:57;23.70;99.90
39881;DHT22;25554;44.954;10.068;2023-08-17T05:02:24;23.70;99.90
39881;DHT22;25554;44.954;10.068;2023-08-17T05:04:53;23.70;99.90
39881;DHT22;25554;44.954;10.068;2023-08-17T05:07:19;23.80;99.90
39881;DHT22;25554;44.954;10.068;2023-08-17T05:09:46;23.80;99.90
39881;DHT22;25554;44.954;10.068;2023-08-17T05:12:13;23.90;99.90
39881;DHT22;25554;44.954;10.068;2023-08-17T05:14:40;23.90;99.90
39881;DHT22;25554;44.954;10.068;2023-08-17T05:17:06;23.90;99.90
39881;DHT22;25554;44.954;10.068;2023-08-17T05:19:33;23.90;99.90
39881;DHT22;25554;44.954;10.068;2023-08-17T05:21:59;23.90;99.90
39881;DHT22;25554;44.954;10.068;2023-08-17T05:24:25;23.90;99.90
39881;DHT22;25554;44.954;10.068;2023-08-17T05:26:53;23.90;99.90
39881;DHT22;25554;44.954;10.068;2023-08-17T05:29:19;23.90;99.90
39881;DHT22;25554;44.954;10.068;2023-08-17T05:31:46;24.00;99.90
39881;DHT22;25554;44.954;10.068;2023-08-17T05:34:12;24.00;99.90
39881;DHT22;25554;44.954;10.068;2023-08-17T05:36:39;24.10;99.90
39881;DHT22;25554;44.954;10.068;2023-08-17T05:39:07;24.10;99.90
39881;DHT22;25554;44.954;10.068;2023-08-17T05:41:34;24.20;99.90
39881;DHT22;25554;44.954;10.068;2023-08-17T05:44:00;24.20;99.90
39881;DHT22;25554;44.954;10.068;2023-08-17T05:46:27;24.30;99.90
39881;DHT22;25554;44.954;10.068;2023-08-17T05:48:53;24.40;99.90
39881;DHT22;25554;44.954;10.068;2023-08-17T05:51:19;24.50;99.90
39881;DHT22;25554;44.954;10.068;2023-08-17T05:53:45;24.40;99.90
39881;DHT22;25554;44.954;10.068;2023-08-17T05:56:12;24.50;99.90
39881;DHT22;25554;44.954;10.068;2023-08-17T05:58:38;24.60;99.90
39881;DHT22;25554;44.954;10.068;2023-08-17T06:01:08;24.60;99.90
39881;DHT22;25554;44.954;10.068;2023-08-17T06:03:35;24.70;99.90
39881;DHT22;25554;44.954;10.068;2023-08-17T06:06:02;24.70;99.90
39881;DHT22;25554;44.954;10.068;2023-08-17T06:08:28;24.70;99.90
39881;DHT22;25554;44.954;10.068;2023-08-17T06:10:55;24.80;99.90
39881;DHT22;25554;44.954;10.068;2023-08-17T06:13:22;24.90;99.90
39881;DHT22;25554;44.954;10.068;2023-08-17T06:15:48;25.00;99.90
39881;DHT22;25554;44.954;10.068;2023-08-17T06:18:14;25.10;99.90
39881;DHT22;25554;44.954;10.068;2023-08-17T06:20:41;25.10;99.90
39881;DHT22;25554;44.954;10.068;2023-08-17T06:23:08;25.20;99.90
39881;DHT22;25554;44.954;10.068;2023-08-17T06:25:34;25.40;99.90
39881;DHT22;25554;44.954;10.068;2023-08-17T06:28:01;25.40;99.90
39881;DHT22;25554;44.954;10.068;2023-08-17T06:30:27;25.60;99.90
39881;DHT22;25554;44.954;10.068;2023-08-17T06:32:53;25.60;99.90
39881;DHT22;25554;44.954;10.068;2023-08-17T06:35:19;25.70;99.90
39881;DHT22;25554;44.954;10.068;2023-08-17T06:37:46;25.90;99.90
39881;DHT22;25554;44.954;10.068;2023-08-17T06:40:12;26.00;99.90
39881;DHT22;25554;44.954;10.068;2023-08-17T06:42:38;26.30;99.90
39881;DHT22;25554;44.954;10.068;2023-08-17T06:45:06;26.80;99.90
39881;DHT22;25554;44.954;10.068;2023-08-17T06:47:32;27.40;99.90
39881;DHT22;25554;44.954;10.068;2023-08-17T06:49:58;28.00;99.90
39881;DHT22;25554;44.954;10.068;2023-08-17T06:52:26;28.40;99.90
39881;DHT22;25554;44.954;10.068;2023-08-17T06:54:52;28.60;99.90
39881;DHT22;25554;44.954;10.068;2023-08-17T06:57:19;28.80;99.90
39881;DHT22;25554;44.954;10.068;2023-08-17T06:59:47;29.20;99.90
39881;DHT22;25554;44.954;10.068;2023-08-17T07:02:13;29.40;99.90
39881;DHT22;25554;44.954;10.068;2023-08-17T07:04:40;29.30;99.90
39881;DHT22;25554;44.954;10.068;2023-08-17T07:07:06;29.20;99.90
39881;DHT22;25554;44.954;10.068;2023-08-17T07:09:32;29.10;99.90
39881;DHT22;25554;44.954;10.068;2023-08-17T07:11:59;29.10;99.90
39881;DHT22;25554;44.954;10.068;2023-08-17T07:14:25;29.30;99.90
39881;DHT22;25554;44.954;10.068;2023-08-17T07:16:51;29.30;99.90
39881;DHT22;25554;44.954;10.068;2023-08-17T07:19:18;29.30;99.90
39881;DHT22;25554;44.954;10.068;2023-08-17T07:21:44;29.20;99.90
39881;DHT22;25554;44.954;10.068;2023-08-17T07:24:11;29.10;99.90
39881;DHT22;25554;44.954;10.068;2023-08-17T07:26:37;29.00;99.90
39881;DHT22;25554;44.954;10.068;2023-08-17T07:29:03;28.80;99.90
39881;DHT22;25554;44.954;10.068;2023-08-17T07:31:29;29.10;99.90
39881;DHT22;25554;44.954;10.068;2023-08-17T07:33:56;29.20;99.90
39881;DHT22;25554;44.954;10.068;2023-08-17T07:36:22;29.30;99.90
39881;DHT22;25554;44.954;10.068;2023-08-17T07:38:48;29.40;99.90
39881;DHT22;25554;44.954;10.068;2023-08-17T07:41:14;29.50;99.90
39881;DHT22;25554;44.954;10.068;2023-08-17T07:43:41;29.70;99.90
39881;DHT22;25554;44.954;10.068;2023-08-17T07:46:07;29.70;99.90
39881;DHT22;25554;44.954;10.068;2023-08-17T07:48:33;29.80;99.90
39881;DHT22;25554;44.954;10.068;2023-08-17T07:51:00;29.90;99.90
39881;DHT22;25554;44.954;10.068;2023-08-17T07:53:26;29.80;99.90
39881;DHT22;25554;44.954;10.068;2023-08-17T07:55:52;29.80;99.90
39881;DHT22;25554;44.954;10.068;2023-08-17T07:58:26;29.70;99.90
39881;DHT22;25554;44.954;10.068;2023-08-17T08:00:55;29.80;99.90
39881;DHT22;25554;44.954;10.068;2023-08-17T08:03:21;29.80;99.90
39881;DHT22;25554;44.954;10.068;2023-08-17T08:05:50;29.70;99.90
39881;DHT22;25554;44.954;10.068;2023-08-17T08:11:49;29.60;99.90
39881;DHT22;25554;44.954;10.068;2023-08-17T08:14:15;29.90;99.90
39881;DHT22;25554;44.954;10.068;2023-08-17T08:16:42;29.50;99.90
39881;DHT22;25554;44.954;10.068;2023-08-17T08:19:08;29.40;99.90
39881;DHT22;25554;44.954;10.068;2023-08-17T08:21:34;29.40;99.90
39881;DHT22;25554;44.954;10.068;2023-08-17T08:24:01;29.40;99.90
39881;DHT22;25554;44.954;10.068;2023-08-17T08:26:27;29.30;99.90
39881;DHT22;25554;44.954;10.068;2023-08-17T08:28:53;29.30;99.90
39881;DHT22;25554;44.954;10.068;2023-08-17T08:31:19;29.30;99.90
39881;DHT22;25554;44.954;10.068;2023-08-17T08:33:46;29.30;99.90
39881;DHT22;25554;44.954;10.068;2023-08-17T08:36:12;29.40;99.90
39881;DHT22;25554;44.954;10.068;2023-08-17T08:38:38;29.50;99.90
39881;DHT22;25554;44.954;10.068;2023-08-17T08:41:05;29.50;99.90
39881;DHT22;25554;44.954;10.068;2023-08-17T08:43:35;29.50;99.90
39881;DHT22;25554;44.954;10.068;2023-08-17T08:46:02;29.50;99.90
39881;DHT22;25554;44.954;10.068;2023-08-17T08:48:33;29.50;99.90
39881;DHT22;25554;44.954;10.068;2023-08-17T08:51:00;29.40;99.90
39881;DHT22;25554;44.954;10.068;2023-08-17T08:53:39;29.50;99.90
39881;DHT22;25554;44.954;10.068;2023-08-17T08:56:15;29.50;99.90
39881;DHT22;25554;44.954;10.068;2023-08-17T08:59:04;29.70;99.90
39881;DHT22;25554;44.954;10.068;2023-08-17T09:01:33;29.60;99.90
39881;DHT22;25554;44.954;10.068;2023-08-17T09:04:12;29.80;99.90
39881;DHT22;25554;44.954;10.068;2023-08-17T09:06:40;29.70;99.90
39881;DHT22;25554;44.954;10.068;2023-08-17T09:13:30;30.10;99.90
39881;DHT22;25554;44.954;10.068;2023-08-17T09:16:01;30.20;99.90
39881;DHT22;25554;44.954;10.068;2023-08-17T09:18:31;30.20;99.90
39881;DHT22;25554;44.954;10.068;2023-08-17T09:25:33;30.30;99.90
39881;DHT22;25554;44.954;10.068;2023-08-17T09:28:16;30.40;99.90
39881;DHT22;25554;44.954;10.068;2023-08-17T09:42:25;31.00;99.90
39881;DHT22;25554;44.954;10.068;2023-08-17T09:44:54;31.10;99.90
39881;DHT22;25554;44.954;10.068;2023-08-17T09:47:28;31.30;99.90
39881;DHT22;25554;44.954;10.068;2023-08-17T09:49:55;31.30;99.90
39881;DHT22;25554;44.954;10.068;2023-08-17T09:52:22;31.50;99.90
39881;DHT22;25554;44.954;10.068;2023-08-17T09:54:52;31.50;99.90
39881;DHT22;25554;44.954;10.068;2023-08-17T09:57:20;31.60;99.90
39881;DHT22;25554;44.954;10.068;2023-08-17T09:59:47;31.60;99.90
39881;DHT22;25554;44.954;10.068;2023-08-17T10:02:22;31.70;99.90
39881;DHT22;25554;44.954;10.068;2023-08-17T10:04:52;31.80;99.90
39881;DHT22;25554;44.954;10.068;2023-08-17T10:07:19;31.70;99.90
39881;DHT22;25554;44.954;10.068;2023-08-17T10:10:02;31.80;99.90
39881;DHT22;25554;44.954;10.068;2023-08-17T10:12:36;31.80;99.90
39881;DHT22;25554;44.954;10.068;2023-08-17T10:15:08;31.80;99.90
39881;DHT22;25554;44.954;10.068;2023-08-17T10:22:00;31.80;99.90
39881;DHT22;25554;44.954;10.068;2023-08-17T10:32:16;32.00;99.90
39881;DHT22;25554;44.954;10.068;2023-08-17T10:34:45;31.90;99.90
39881;DHT22;25554;44.954;10.068;2023-08-17T10:37:12;32.00;99.90
39881;DHT22;25554;44.954;10.068;2023-08-17T10:39:45;31.80;99.90
39881;DHT22;25554;44.954;10.068;2023-08-17T10:42:13;31.70;99.90
39881;DHT22;25554;44.954;10.068;2023-08-17T10:44:49;31.80;99.90
39881;DHT22;25554;44.954;10.068;2023-08-17T10:47:22;31.80;99.90
39881;DHT22;25554;44.954;10.068;2023-08-17T10:49:50;31.90;99.90
39881;DHT22;25554;44.954;10.068;2023-08-17T10:52:28;32.10;99.90
39881;DHT22;25554;44.954;10.068;2023-08-17T10:54:55;32.20;99.90
39881;DHT22;25554;44.954;10.068;2023-08-17T10:57:41;32.30;99.80
39881;DHT22;25554;44.954;10.068;2023-08-17T11:00:23;32.40;99.80
39881;DHT22;25554;44.954;10.068;2023-08-17T11:05:47;32.50;99.90
39881;DHT22;25554;44.954;10.068;2023-08-17T11:13:33;33.10;99.10
39881;DHT22;25554;44.954;10.068;2023-08-17T11:16:00;33.20;99.00
39881;DHT22;25554;44.954;10.068;2023-08-17T11:18:27;33.30;98.90
39881;DHT22;25554;44.954;10.068;2023-08-17T11:21:23;33.10;99.10
39881;DHT22;25554;44.954;10.068;2023-08-17T11:28:26;32.70;99.10
39881;DHT22;25554;44.954;10.068;2023-08-17T11:30:59;32.40;99.30
39881;DHT22;25554;44.954;10.068;2023-08-17T11:33:28;32.30;99.60
39881;DHT22;25554;44.954;10.068;2023-08-17T11:35:56;32.30;99.70
39881;DHT22;25554;44.954;10.068;2023-08-17T11:38:23;32.30;99.90
39881;DHT22;25554;44.954;10.068;2023-08-17T11:40:49;32.20;99.80
39881;DHT22;25554;44.954;10.068;2023-08-17T11:43:16;32.20;99.50
39881;DHT22;25554;44.954;10.068;2023-08-17T11:45:44;32.20;99.70
39881;DHT22;25554;44.954;10.068;2023-08-17T11:48:10;32.20;99.70
39881;DHT22;25554;44.954;10.068;2023-08-17T11:50:38;32.30;99.80
39881;DHT22;25554;44.954;10.068;2023-08-17T11:53:05;32.30;99.70
39881;DHT22;25554;44.954;10.068;2023-08-17T11:55:31;32.50;99.30
39881;DHT22;25554;44.954;10.068;2023-08-17T11:57:58;32.50;99.30
39881;DHT22;25554;44.954;10.068;2023-08-17T12:00:24;32.50;99.30
39881;DHT22;25554;44.954;10.068;2023-08-17T12:02:53;32.60;99.40
39881;DHT22;25554;44.954;10.068;2023-08-17T12:05:23;32.60;99.20
39881;DHT22;25554;44.954;10.068;2023-08-17T12:07:50;32.60;99.10
39881;DHT22;25554;44.954;10.068;2023-08-17T12:10:19;32.60;99.30
39881;DHT22;25554;44.954;10.068;2023-08-17T12:12:48;32.70;99.20
39881;DHT22;25554;44.954;10.068;2023-08-17T12:15:18;32.60;99.20
39881;DHT22;25554;44.954;10.068;2023-08-17T12:17:46;32.30;99.20
39881;DHT22;25554;44.954;10.068;2023-08-17T12:20:17;32.20;99.20
39881;DHT22;25554;44.954;10.068;2023-08-17T12:22:44;32.30;99.10
39881;DHT22;25554;44.954;10.068;2023-08-17T12:25:11;32.30;99.20
39881;DHT22;25554;44.954;10.068;2023-08-17T12:27:37;32.20;99.20
39881;DHT22;25554;44.954;10.068;2023-08-17T12:30:04;32.30;99.20
39881;DHT22;25554;44.954;10.068;2023-08-17T12:32:31;32.20;99.30
39881;DHT22;25554;44.954;10.068;2023-08-17T12:34:57;32.10;99.30
39881;DHT22;25554;44.954;10.068;2023-08-17T12:37:23;32.10;99.20
39881;DHT22;25554;44.954;10.068;2023-08-17T12:39:49;32.00;99.20
39881;DHT22;25554;44.954;10.068;2023-08-17T12:42:16;32.10;99.30
39881;DHT22;25554;44.954;10.068;2023-08-17T12:44:49;32.00;99.00
39881;DHT22;25554;44.954;10.068;2023-08-17T12:47:16;32.00;99.00
39881;DHT22;25554;44.954;10.068;2023-08-17T12:49:42;32.00;99.20
39881;DHT22;25554;44.954;10.068;2023-08-17T12:52:08;31.90;99.40
39881;DHT22;25554;44.954;10.068;2023-08-17T13:02:05;31.60;99.90
39881;DHT22;25554;44.954;10.068;2023-08-17T13:04:32;31.60;99.90
39881;DHT22;25554;44.954;10.068;2023-08-17T13:07:00;31.40;99.90
39881;DHT22;25554;44.954;10.068;2023-08-17T13:09:30;31.40;99.90
39881;DHT22;25554;44.954;10.068;2023-08-17T13:11:59;31.30;99.90
39881;DHT22;25554;44.954;10.068;2023-08-17T13:14:27;31.20;99.90
39881;DHT22;25554;44.954;10.068;2023-08-17T13:16:56;31.20;99.90
39881;DHT22;25554;44.954;10.068;2023-08-17T13:19:23;31.10;99.90
39881;DHT22;25554;44.954;10.068;2023-08-17T13:21:49;31.10;99.90
39881;DHT22;25554;44.954;10.068;2023-08-17T13:24:15;31.00;99.90
39881;DHT22;25554;44.954;10.068;2023-08-17T13:26:42;30.90;99.90
39881;DHT22;25554;44.954;10.068;2023-08-17T13:29:08;30.90;99.90
39881;DHT22;25554;44.954;10.068;2023-08-17T13:31:35;30.80;99.90
39881;DHT22;25554;44.954;10.068;2023-08-17T13:34:02;30.80;99.90
39881;DHT22;25554;44.954;10.068;2023-08-17T13:36:28;30.60;99.90
39881;DHT22;25554;44.954;10.068;2023-08-17T13:38:54;30.60;99.90
39881;DHT22;25554;44.954;10.068;2023-08-17T13:41:20;30.60;99.90
39881;DHT22;25554;44.954;10.068;2023-08-17T13:43:48;30.50;99.90
39881;DHT22;25554;44.954;10.068;2023-08-17T13:46:14;30.50;99.90
39881;DHT22;25554;44.954;10.068;2023-08-17T13:48:40;30.40;99.90
39881;DHT22;25554;44.954;10.068;2023-08-17T13:51:07;30.40;99.90
39881;DHT22;25554;44.954;10.068;2023-08-17T13:53:33;30.30;99.90
39881;DHT22;25554;44.954;10.068;2023-08-17T13:56:05;30.30;99.90
39881;DHT22;25554;44.954;10.068;2023-08-17T13:58:31;30.20;99.90
39881;DHT22;25554;44.954;10.068;2023-08-17T14:00:58;30.20;99.90
39881;DHT22;25554;44.954;10.068;2023-08-17T14:03:27;30.20;99.90
39881;DHT22;25554;44.954;10.068;2023-08-17T14:05:53;30.10;99.90
39881;DHT22;25554;44.954;10.068;2023-08-17T14:08:20;30.20;99.90
39881;DHT22;25554;44.954;10.068;2023-08-17T14:10:46;30.10;99.90
39881;DHT22;25554;44.954;10.068;2023-08-17T14:13:28;30.20;99.90
39881;DHT22;25554;44.954;10.068;2023-08-17T14:19:32;30.10;99.90
39881;DHT22;25554;44.954;10.068;2023-08-17T14:21:58;30.00;99.90
39881;DHT22;25554;44.954;10.068;2023-08-17T14:24:27;30.00;99.90
39881;DHT22;25554;44.954;10.068;2023-08-17T14:26:53;30.00;99.90
39881;DHT22;25554;44.954;10.068;2023-08-17T14:29:20;30.00;99.90
39881;DHT22;25554;44.954;10.068;2023-08-17T14:31:46;30.00;99.90
39881;DHT22;25554;44.954;10.068;2023-08-17T14:34:12;30.00;99.90
39881;DHT22;25554;44.954;10.068;2023-08-17T14:36:39;29.90;99.90
39881;DHT22;25554;44.954;10.068;2023-08-17T14:39:09;29.90;99.90
39881;DHT22;25554;44.954;10.068;2023-08-17T14:41:38;29.80;99.90
39881;DHT22;25554;44.954;10.068;2023-08-17T14:44:09;29.90;99.90
39881;DHT22;25554;44.954;10.068;2023-08-17T14:46:54;30.00;99.90
39881;DHT22;25554;44.954;10.068;2023-08-17T14:49:21;29.80;99.90
39881;DHT22;25554;44.954;10.068;2023-08-17T14:51:48;29.80;99.90
39881;DHT22;25554;44.954;10.068;2023-08-17T14:54:16;29.70;99.90
39881;DHT22;25554;44.954;10.068;2023-08-17T14:56:43;29.70;99.90
39881;DHT22;25554;44.954;10.068;2023-08-17T14:59:12;29.70;99.90
39881;DHT22;25554;44.954;10.068;2023-08-17T15:01:38;29.60;99.90
39881;DHT22;25554;44.954;10.068;2023-08-17T15:04:05;29.60;99.90
39881;DHT22;25554;44.954;10.068;2023-08-17T15:06:31;29.60;99.90
39881;DHT22;25554;44.954;10.068;2023-08-17T15:08:58;29.60;99.90
39881;DHT22;25554;44.954;10.068;2023-08-17T15:11:27;29.60;99.90
39881;DHT22;25554;44.954;10.068;2023-08-17T15:13:55;29.60;99.90
39881;DHT22;25554;44.954;10.068;2023-08-17T15:16:23;29.60;99.90
39881;DHT22;25554;44.954;10.068;2023-08-17T15:18:54;29.60;99.90
39881;DHT22;25554;44.954;10.068;2023-08-17T15:21:21;29.50;99.90
39881;DHT22;25554;44.954;10.068;2023-08-17T15:23:48;29.50;99.90
39881;DHT22;25554;44.954;10.068;2023-08-17T15:26:14;29.40;99.90
39881;DHT22;25554;44.954;10.068;2023-08-17T15:28:41;29.40;99.90
39881;DHT22;25554;44.954;10.068;2023-08-17T15:31:07;29.40;99.90
39881;DHT22;25554;44.954;10.068;2023-08-17T15:33:39;29.40;99.90
39881;DHT22;25554;44.954;10.068;2023-08-17T15:36:05;29.40;99.90
39881;DHT22;25554;44.954;10.068;2023-08-17T15:38:32;29.30;99.90
39881;DHT22;25554;44.954;10.068;2023-08-17T15:40:58;29.40;99.90
39881;DHT22;25554;44.954;10.068;2023-08-17T15:43:25;29.30;99.90
39881;DHT22;25554;44.954;10.068;2023-08-17T15:45:51;29.30;99.90
39881;DHT22;25554;44.954;10.068;2023-08-17T15:48:19;29.30;99.90
39881;DHT22;25554;44.954;10.068;2023-08-17T15:50:45;29.30;99.90
39881;DHT22;25554;44.954;10.068;2023-08-17T15:53:12;29.30;99.90
39881;DHT22;25554;44.954;10.068;2023-08-17T15:55:38;29.30;99.90
39881;DHT22;25554;44.954;10.068;2023-08-17T15:58:04;29.30;99.90
39881;DHT22;25554;44.954;10.068;2023-08-17T16:00:32;29.30;99.90
39881;DHT22;25554;44.954;10.068;2023-08-17T16:02:58;29.30;99.90
39881;DHT22;25554;44.954;10.068;2023-08-17T16:05:24;29.30;99.90
39881;DHT22;25554;44.954;10.068;2023-08-17T16:07:51;29.30;99.90
39881;DHT22;25554;44.954;10.068;2023-08-17T16:10:17;29.30;99.90
39881;DHT22;25554;44.954;10.068;2023-08-17T16:12:43;29.30;99.90
39881;DHT22;25554;44.954;10.068;2023-08-17T16:15:09;29.20;99.90
39881;DHT22;25554;44.954;10.068;2023-08-17T16:17:35;29.20;99.90
39881;DHT22;25554;44.954;10.068;2023-08-17T16:20:02;29.20;99.90
39881;DHT22;25554;44.954;10.068;2023-08-17T16:22:28;29.30;99.90